This is the latest recevied weather packets stored in our database for station/object OM1PU-6. If no packets are shown the sender has not sent any weather packets the latest 10 day(s).
| Time | Temp. | Humidity | Pressure | Rain* | Wind** | Luminosity | Snow |
|---|---|---|---|---|---|---|---|
| 1777264392 | 5° C | 75% | 1036 hPa | 0 mm | - | - | - |
| 1777263492 | 5° C | 73% | 1035.7 hPa | 0 mm | - | - | - |
| 1777262592 | 5° C | 73% | 1035.7 hPa | 0 mm | - | - | - |
| 1777261692 | 5° C | 72% | 1035.6 hPa | 0 mm | - | - | - |
| 1777260792 | 5° C | 73% | 1035.4 hPa | 0 mm | - | - | - |
| 1777259892 | 4.44° C | 76% | 1035.7 hPa | 0 mm | - | - | - |
| 1777258991 | 5.56° C | 73% | 1035.6 hPa | 0 mm | - | - | - |
| 1777258092 | 5.56° C | 71% | 1035.6 hPa | 0 mm | - | - | - |
| 1777257192 | 6.11° C | 71% | 1035.6 hPa | 0 mm | - | - | - |
| 1777256299 | 6.11° C | 70% | 1035.7 hPa | 0 mm | - | - | - |
| 1777255392 | 6.67° C | 67% | 1035.5 hPa | 0 mm | - | - | - |
| 1777254492 | 6.67° C | 67% | 1035.5 hPa | 0 mm | - | - | - |
| 1777253591 | 6.67° C | 67% | 1035.8 hPa | 0 mm | - | - | - |
| 1777252692 | 6.67° C | 67% | 1035.6 hPa | 0 mm | - | - | - |
| 1777251791 | 6.67° C | 69% | 1035.5 hPa | 0 mm | - | - | - |
| 1777250891 | 7.22° C | 68% | 1036 hPa | 0 mm | - | - | - |
| 1777249992 | 7.22° C | 67% | 1035.7 hPa | 0 mm | - | - | - |
| 1777249091 | 7.22° C | 66% | 1036.1 hPa | 0 mm | - | - | - |
| 1777248193 | 7.22° C | 65% | 1036 hPa | 0 mm | - | - | - |
| 1777247292 | 7.78° C | 64% | 1036 hPa | 0 mm | - | - | - |
| 1777246391 | 7.22° C | 66% | 1036.1 hPa | 0 mm | - | - | - |
| 1777245492 | 7.22° C | 67% | 1036 hPa | 0 mm | - | - | - |
| 1777244592 | 7.78° C | 64% | 1036.1 hPa | 0 mm | - | - | - |
| 1777243691 | 7.78° C | 63% | 1035.8 hPa | 0 mm | - | - | - |
| 1777242792 | 7.78° C | 65% | 1036.1 hPa | 0 mm | - | - | - |
* Rain latest 24 hours (hover to see other rain measurements)
** Current wind speed in m/s (hover to see current wind gust speed)